Time;durP1;ratioP1;P1;durP2;ratioP2;P2;SDS_P1;SDS_P2;PMS_P1;PMS_P2;Temp;Humidity;BMP_temperature;BMP_pressure;BME280_temperature;BME280_humidity;BME280_pressure;Samples;Min_cycle;Max_cycle;Signal;HPM_P1;HPM_P2
2022/03/01 00:01:02;;;;;;;23.90;16.90;;;;;;;1.30;nan;102678.63;5053944;28;20488;-56
2022/03/01 00:03:27;;;;;;;19.52;16.25;;;;;;;1.33;nan;102689.09;5054121;28;20496;-54
2022/03/01 00:05:53;;;;;;;23.27;17.55;;;;;;;1.34;nan;102688.28;5071980;28;20037;-52
2022/03/01 00:08:18;;;;;;;20.98;16.73;;;;;;;1.29;nan;102688.09;5053778;28;20053;-52
2022/03/01 00:10:43;;;;;;;20.85;16.85;;;;;;;1.26;nan;102680.22;5071832;28;20036;-58
2022/03/01 00:13:08;;;;;;;23.27;17.63;;;;;;;1.35;nan;102711.66;5072192;28;20032;-53
2022/03/01 00:15:34;;;;;;;21.42;17.75;;;;;;;0.95;nan;102639.38;5076079;28;20494;-55
2022/03/01 00:17:59;;;;;;;23.73;18.10;;;;;;;1.22;nan;102683.56;5075675;28;20050;-53
2022/03/01 00:20:25;;;;;;;20.50;16.50;;;;;;;1.34;nan;102693.47;5057992;28;20029;-53
2022/03/01 00:22:50;;;;;;;22.20;16.67;;;;;;;1.30;nan;102692.47;5075690;28;20476;-52
2022/03/01 00:25:15;;;;;;;24.52;16.50;;;;;;;1.34;nan;102689.19;5075598;28;20040;-52
2022/03/01 00:27:41;;;;;;;22.95;16.63;;;;;;;1.33;nan;102690.00;5075665;28;20036;-56
2022/03/01 00:30:07;;;;;;;23.38;18.10;;;;;;;1.36;nan;102686.63;5075466;28;20032;-53
2022/03/01 00:32:32;;;;;;;22.88;17.23;;;;;;;1.29;nan;102675.13;5057718;28;20066;-52
2022/03/01 00:34:57;;;;;;;22.63;17.60;;;;;;;1.39;nan;102686.72;5024359;28;20036;-53
2022/03/01 00:37:23;;;;;;;21.58;16.67;;;;;;;1.22;nan;102659.31;5075448;28;20145;-54
2022/03/01 00:39:48;;;;;;;26.17;17.48;;;;;;;1.38;nan;102683.25;5057313;28;20550;-54
2022/03/01 00:42:13;;;;;;;23.80;18.30;;;;;;;1.32;nan;102690.81;5075286;28;20518;-53
2022/03/01 00:44:39;;;;;;;23.60;17.42;;;;;;;1.41;nan;102679.84;5057351;28;20039;-53
2022/03/01 00:47:05;;;;;;;22.00;17.15;;;;;;;1.39;nan;102692.78;5075293;28;20029;-52
2022/03/01 00:49:30;;;;;;;20.67;17.23;;;;;;;1.02;nan;102627.53;5040830;28;20078;-54
2022/03/01 00:51:55;;;;;;;21.33;17.08;;;;;;;1.08;nan;102641.56;5075041;28;20032;-53
2022/03/01 00:54:21;;;;;;;24.98;18.30;;;;;;;1.44;nan;102688.63;5074948;28;20063;-53
2022/03/01 00:56:46;;;;;;;24.90;18.08;;;;;;;1.43;nan;102686.88;5075222;28;20040;-52
2022/03/01 00:59:12;;;;;;;23.80;17.25;;;;;;;1.45;nan;102695.59;5075373;28;20126;-52
2022/03/01 01:01:37;;;;;;;24.73;18.02;;;;;;;1.46;nan;102689.56;5057161;28;20036;-52
2022/03/01 01:04:03;;;;;;;21.90;16.80;;;;;;;1.48;nan;102682.72;5056997;28;20033;-52
2022/03/01 01:06:29;;;;;;;24.55;17.85;;;;;;;1.25;nan;102649.06;5074757;28;20098;-52
2022/03/01 01:08:54;;;;;;;22.52;17.23;;;;;;;1.52;nan;102675.91;5056640;28;20063;-51
2022/03/01 01:11:20;;;;;;;24.35;18.15;;;;;;;1.45;nan;102672.25;5074707;28;20094;-53
2022/03/01 01:13:46;;;;;;;24.30;18.05;;;;;;;1.54;nan;102682.06;5056863;28;20028;-51
2022/03/01 01:16:11;;;;;;;23.60;17.20;;;;;;;1.13;nan;102615.81;5056979;28;20166;-50
2022/03/01 01:18:38;;;;;;;22.95;17.23;;;;;;;1.54;nan;102690.72;5074792;28;20050;-52
2022/03/01 01:21:04;;;;;;;24.40;19.63;;;;;;;1.61;nan;102686.59;5074550;28;20028;-53
2022/03/01 01:23:29;;;;;;;24.35;17.48;;;;;;;1.62;nan;102693.56;5056483;28;20039;-50
2022/03/01 01:25:55;;;;;;;24.70;18.42;;;;;;;1.66;nan;102687.66;5073342;28;20039;-52
2022/03/01 01:28:20;;;;;;;23.08;17.25;;;;;;;1.68;nan;102693.78;5074557;28;20376;-53
2022/03/01 01:30:45;;;;;;;24.00;18.38;;;;;;;1.70;nan;102687.81;5056634;28;20127;-51
2022/03/01 01:33:11;;;;;;;21.70;17.33;;;;;;;1.75;nan;102689.69;5056476;28;20056;-53
2022/03/01 01:35:36;;;;;;;24.08;18.80;;;;;;;1.71;nan;102678.31;5056405;28;20066;-50
2022/03/01 01:38:02;;;;;;;21.63;17.30;;;;;;;1.74;nan;102678.41;5074211;28;20033;-53
2022/03/01 01:40:29;;;;;;;24.80;18.58;;;;;;;1.65;nan;102663.41;5040028;28;20136;-51
2022/03/01 01:42:56;;;;;;;23.00;17.55;;;;;;;1.45;nan;102622.94;5074371;28;20064;-51
2022/03/01 01:45:23;;;;;;;22.92;18.50;;;;;;;1.79;nan;102674.22;5074248;28;20479;-50
2022/03/01 01:47:50;;;;;;;22.30;18.17;;;;;;;1.37;nan;102607.97;5056060;28;20086;-52
2022/03/01 01:50:16;;;;;;;23.88;18.90;;;;;;;1.67;nan;102656.53;5074012;28;20395;-55
2022/03/01 01:52:47;;;;;;;22.98;17.40;;;;;;;1.37;nan;102595.00;5073844;28;20119;-50
2022/03/01 01:55:14;;;;;;;25.13;18.05;;;;;;;1.38;nan;102602.81;5074263;28;20067;-52
2022/03/01 01:57:40;;;;;;;23.15;18.05;;;;;;;1.81;nan;102676.91;5073973;28;20124;-50
2022/03/01 02:00:06;;;;;;;22.95;18.52;;;;;;;1.79;nan;102669.03;5073934;28;20127;-49
2022/03/01 02:02:32;;;;;;;23.52;19.23;;;;;;;1.81;nan;102664.78;5073795;28;20032;-51
2022/03/01 02:04:57;;;;;;;25.65;19.42;;;;;;;1.43;nan;102593.44;5073751;28;20036;-52
2022/03/01 02:07:22;;;;;;;27.08;20.38;;;;;;;1.73;nan;102649.78;5055815;28;20468;-52
2022/03/01 02:09:48;;;;;;;25.10;18.55;;;;;;;1.82;nan;102656.16;5073306;28;20059;-53
2022/03/01 02:12:13;;;;;;;26.85;19.60;;;;;;;1.82;nan;102676.94;5073887;28;20094;-54
2022/03/01 02:14:40;;;;;;;24.42;19.80;;;;;;;1.47;nan;102586.66;5055971;28;20044;-55
2022/03/01 02:17:08;;;;;;;24.88;19.77;;;;;;;1.87;nan;102656.31;5073732;28;20028;-52
2022/03/01 02:19:34;;;;;;;25.42;20.13;;;;;;;1.87;nan;102646.78;5073766;28;20063;-52
2022/03/01 02:21:59;;;;;;;30.23;19.27;;;;;;;1.92;nan;102654.75;5073245;28;20094;-52
2022/03/01 02:24:27;;;;;;;25.98;20.20;;;;;;;1.94;nan;102637.50;5055495;28;20037;-54
2022/03/01 02:26:55;;;;;;;27.25;21.27;;;;;;;2.01;nan;102649.84;5073172;28;20456;-54
2022/03/01 02:29:20;;;;;;;25.98;20.77;;;;;;;2.05;nan;102654.28;5073755;28;20043;-53
2022/03/01 02:31:46;;;;;;;25.83;20.02;;;;;;;2.07;nan;102650.03;5073248;28;20123;-53
2022/03/01 02:34:11;;;;;;;26.35;21.75;;;;;;;2.01;nan;102648.13;5073156;28;20471;-55
2022/03/01 02:36:36;;;;;;;25.25;19.40;;;;;;;1.68;nan;102597.72;5055221;28;20453;-53
2022/03/01 02:39:02;;;;;;;25.08;20.77;;;;;;;2.04;nan;102661.19;5055257;28;20028;-52
2022/03/01 02:41:28;;;;;;;29.92;20.73;;;;;;;2.05;nan;102651.69;5055290;28;20032;-54
2022/03/01 02:43:53;;;;;;;29.15;20.38;;;;;;;2.05;nan;102655.16;5073040;28;20040;-55
2022/03/01 02:46:19;;;;;;;27.48;21.08;;;;;;;2.04;nan;102649.94;5073282;28;20032;-53
2022/03/01 02:48:44;;;;;;;25.52;19.27;;;;;;;2.06;nan;102649.16;5038402;28;20047;-53
2022/03/01 02:51:10;;;;;;;25.08;19.58;;;;;;;1.61;nan;102562.00;5073192;28;20032;-51
2022/03/01 02:53:36;;;;;;;27.42;20.73;;;;;;;2.10;nan;102648.38;5073060;28;20435;-53
2022/03/01 02:56:05;;;;;;;26.50;21.63;;;;;;;1.82;nan;102600.75;5055191;28;20046;-55
2022/03/01 02:58:30;;;;;;;27.42;20.90;;;;;;;2.07;nan;102653.50;5073127;28;20029;-52
2022/03/01 03:00:56;;;;;;;23.38;19.35;;;;;;;1.97;nan;102647.97;5072737;28;20035;-52
2022/03/01 03:03:21;;;;;;;25.45;19.30;;;;;;;1.68;nan;102587.34;5054851;28;20028;-54
2022/03/01 03:05:46;;;;;;;25.67;20.55;;;;;;;2.06;nan;102649.16;5072749;28;20458;-51
2022/03/01 03:08:12;;;;;;;26.08;20.50;;;;;;;1.88;nan;102622.59;5054681;28;20396;-53
2022/03/01 03:10:38;;;;;;;27.85;20.85;;;;;;;2.02;nan;102628.22;5072492;28;20060;-53
2022/03/01 03:13:04;;;;;;;28.40;20.10;;;;;;;2.08;nan;102633.59;5054531;28;20063;-51
2022/03/01 03:15:30;;;;;;;27.92;20.90;;;;;;;2.10;nan;102637.16;5072486;28;20040;-55
2022/03/01 03:17:57;;;;;;;25.73;21.02;;;;;;;2.19;nan;102642.59;5072355;28;20038;-55
2022/03/01 03:20:23;;;;;;;28.58;20.70;;;;;;;1.94;nan;102590.75;5072535;28;20032;-56
2022/03/01 03:22:49;;;;;;;26.27;20.30;;;;;;;2.24;nan;102656.63;5072612;28;20044;-53
2022/03/01 03:25:14;;;;;;;26.00;21.02;;;;;;;2.00;nan;102603.91;5072669;28;20032;-55
2022/03/01 03:27:40;;;;;;;25.10;20.02;;;;;;;2.01;nan;102592.69;5072158;28;20404;-52
2022/03/01 03:30:07;;;;;;;27.00;20.80;;;;;;;2.40;nan;102647.56;5054428;28;20032;-55
2022/03/01 03:32:32;;;;;;;24.60;19.80;;;;;;;2.45;nan;102653.78;5071987;28;20043;-53
2022/03/01 03:34:58;;;;;;;26.50;20.98;;;;;;;2.52;nan;102659.19;5072349;28;20041;-54
2022/03/01 03:37:23;;;;;;;25.55;20.65;;;;;;;2.48;nan;102636.53;5054602;28;20063;-54
2022/03/01 03:39:49;;;;;;;27.95;20.33;;;;;;;2.29;nan;102600.47;5072328;28;20032;-52
2022/03/01 03:42:14;;;;;;;27.75;21.00;;;;;;;2.64;nan;102643.06;5054401;28;20090;-54
2022/03/01 03:44:40;;;;;;;31.25;21.77;;;;;;;2.70;nan;102662.34;5072158;28;20542;-56
2022/03/01 03:47:06;;;;;;;24.95;19.95;;;;;;;2.73;nan;102648.53;5072176;28;20036;-55
2022/03/01 03:49:32;;;;;;;25.50;19.98;;;;;;;2.76;nan;102639.09;5056699;28;20406;-54
2022/03/01 03:51:59;;;;;;;24.35;20.90;;;;;;;2.69;nan;102611.16;5076108;28;20032;-54
2022/03/01 03:54:24;;;;;;;22.50;19.25;;;;;;;2.58;nan;102602.19;5076241;28;20036;-53
2022/03/01 03:56:50;;;;;;;28.25;19.58;;;;;;;2.55;nan;102585.63;5076107;28;20472;-53
2022/03/01 03:59:15;;;;;;;25.67;20.10;;;;;;;2.88;nan;102648.97;5058167;28;20037;-54
2022/03/01 04:01:41;;;;;;;25.52;18.40;;;;;;;2.66;nan;102613.66;5075674;28;20036;-51
2022/03/01 04:04:08;;;;;;;23.42;19.05;;;;;;;2.96;nan;102642.25;5076341;28;20071;-53
2022/03/01 04:06:33;;;;;;;23.38;19.58;;;;;;;2.99;nan;102647.53;5058251;28;20028;-56
2022/03/01 04:08:59;;;;;;;24.45;19.15;;;;;;;3.04;nan;102640.72;5057942;28;20522;-54
2022/03/01 04:11:25;;;;;;;25.38;19.67;;;;;;;3.11;nan;102631.38;5075753;28;20107;-56
2022/03/01 04:13:52;;;;;;;23.98;19.40;;;;;;;3.14;nan;102636.66;5075850;28;20529;-57
2022/03/01 04:16:18;;;;;;;27.10;19.27;;;;;;;3.14;nan;102632.34;5041239;28;20043;-52
2022/03/01 04:18:43;;;;;;;25.42;18.92;;;;;;;3.18;nan;102634.16;5057956;28;20024;-55
2022/03/01 04:21:08;;;;;;;26.63;18.48;;;;;;;3.23;nan;102631.69;5075885;28;20094;-55
2022/03/01 04:23:34;;;;;;;23.10;18.48;;;;;;;3.24;nan;102634.31;5057799;28;20432;-53
2022/03/01 04:25:59;;;;;;;25.33;18.10;;;;;;;3.28;nan;102643.97;5075597;28;20032;-54
2022/03/01 04:28:25;;;;;;;25.05;17.50;;;;;;;2.94;nan;102571.09;5057578;28;20037;-50
2022/03/01 04:30:50;;;;;;;23.35;18.45;;;;;;;3.36;nan;102644.16;5075503;28;20069;-56
2022/03/01 04:33:15;;;;;;;25.17;18.30;;;;;;;3.40;nan;102640.81;5075413;28;20082;-55
2022/03/01 04:35:41;;;;;;;21.27;17.25;;;;;;;3.04;nan;102567.00;5075582;28;20051;-55
2022/03/01 04:38:07;;;;;;;21.52;16.67;;;;;;;3.52;nan;102635.91;5075623;28;20037;-56
2022/03/01 04:40:32;;;;;;;22.67;15.82;;;;;;;3.58;nan;102653.41;5057590;28;20033;-55
2022/03/01 04:42:58;;;;;;;20.90;16.33;;;;;;;3.60;nan;102641.31;5057748;28;20074;-54
2022/03/01 04:45:24;;;;;;;22.02;16.73;;;;;;;3.66;nan;102638.84;5075370;28;20394;-54
2022/03/01 04:47:49;;;;;;;18.98;15.88;;;;;;;3.54;nan;102609.91;5075168;28;20410;-56
2022/03/01 04:50:14;;;;;;;18.40;15.70;;;;;;;3.73;nan;102645.97;5075360;28;20047;-49
2022/03/01 04:52:40;;;;;;;21.70;15.77;;;;;;;3.82;nan;102657.47;5075362;28;20111;-53
2022/03/01 04:55:06;;;;;;;19.88;15.75;;;;;;;3.83;nan;102648.84;5075328;28;20032;-52
2022/03/01 04:57:32;;;;;;;20.60;15.90;;;;;;;3.96;nan;102650.91;5057283;28;20047;-54
2022/03/01 04:59:58;;;;;;;18.77;15.23;;;;;;;3.72;nan;102599.94;5056937;28;20029;-52
2022/03/01 05:02:23;;;;;;;21.35;15.65;;;;;;;3.96;nan;102637.00;5075252;28;20475;-52
2022/03/01 05:04:48;;;;;;;18.35;15.38;;;;;;;3.99;nan;102642.28;5057288;28;20035;-56
2022/03/01 05:07:16;;;;;;;19.80;15.60;;;;;;;4.00;nan;102635.34;5074797;28;20113;-51
2022/03/01 05:09:42;;;;;;;20.48;15.68;;;;;;;3.97;nan;102637.00;5040576;28;20056;-55
2022/03/01 05:12:08;;;;;;;20.20;15.25;;;;;;;3.71;nan;102588.63;5074870;28;20029;-52
2022/03/01 05:14:34;;;;;;;20.60;16.13;;;;;;;3.97;nan;102647.44;5074631;28;20111;-51
2022/03/01 05:16:59;;;;;;;21.35;16.08;;;;;;;3.95;nan;102630.00;5056787;28;20124;-52
2022/03/01 05:19:24;;;;;;;20.02;15.80;;;;;;;3.98;nan;102630.06;5074975;28;20157;-51
2022/03/01 05:21:50;;;;;;;21.50;16.52;;;;;;;3.73;nan;102589.56;5074660;28;20039;-51
2022/03/01 05:24:15;;;;;;;22.75;16.90;;;;;;;3.98;nan;102628.34;5056705;28;20037;-54
2022/03/01 05:26:40;;;;;;;19.27;15.85;;;;;;;4.01;nan;102626.66;5074455;28;20032;-55
2022/03/01 05:29:07;;;;;;;18.95;14.95;;;;;;;4.02;nan;102631.03;5074336;28;20445;-51
2022/03/01 05:31:34;;;;;;;23.10;15.18;;;;;;;4.02;nan;102634.53;5074764;28;20040;-54
2022/03/01 05:33:59;;;;;;;18.98;14.60;;;;;;;3.98;nan;102637.91;5056684;28;20399;-54
2022/03/01 05:36:24;;;;;;;21.75;16.15;;;;;;;3.98;nan;102633.56;5074539;28;20036;-54
2022/03/01 05:38:50;;;;;;;19.65;15.32;;;;;;;4.03;nan;102641.47;5056585;28;20039;-51
2022/03/01 05:41:15;;;;;;;20.63;15.18;;;;;;;4.04;nan;102643.25;5074502;28;20059;-55
2022/03/01 05:43:41;;;;;;;21.33;15.35;;;;;;;3.72;nan;102582.59;5074307;28;20028;-52
2022/03/01 05:46:06;;;;;;;17.45;14.60;;;;;;;4.08;nan;102633.78;5056283;28;20069;-54
2022/03/01 05:48:31;;;;;;;18.35;14.68;;;;;;;3.91;nan;102596.94;5056327;28;20036;-55
2022/03/01 05:50:57;;;;;;;18.00;15.13;;;;;;;3.74;nan;102570.47;5056047;28;20029;-55
2022/03/01 05:53:23;;;;;;;17.17;14.85;;;;;;;4.13;nan;102642.56;5074187;28;20036;-55
2022/03/01 05:55:49;;;;;;;20.50;14.90;;;;;;;4.04;nan;102619.78;5073949;28;20535;-56
2022/03/01 05:58:14;;;;;;;19.25;15.82;;;;;;;4.11;nan;102639.94;5073634;28;20119;-55
2022/03/01 06:00:40;;;;;;;21.13;15.15;;;;;;;4.05;nan;102621.56;5073744;28;20056;-55
2022/03/01 06:03:05;;;;;;;19.70;16.17;;;;;;;4.17;nan;102653.13;5074095;28;20054;-54
2022/03/01 06:05:31;;;;;;;19.65;14.85;;;;;;;3.60;nan;102543.25;5055960;28;20086;-53
2022/03/01 06:07:57;;;;;;;20.08;15.75;;;;;;;4.17;nan;102636.59;5073521;28;20056;-54
2022/03/01 06:10:24;;;;;;;20.25;15.82;;;;;;;4.17;nan;102644.41;5073742;28;20381;-52
2022/03/01 06:12:49;;;;;;;21.52;15.45;;;;;;;4.10;nan;102626.88;5072698;28;20613;-54
2022/03/01 06:15:14;;;;;;;19.45;15.05;;;;;;;4.03;nan;102614.56;5073413;28;20054;-53
2022/03/01 06:17:40;;;;;;;18.63;14.98;;;;;;;4.20;nan;102642.75;5073758;28;20037;-54
2022/03/01 06:20:08;;;;;;;20.17;15.43;;;;;;;3.83;nan;102585.44;5073629;28;20115;-52
2022/03/01 06:22:34;;;;;;;18.45;15.18;;;;;;;4.20;nan;102640.16;5073427;28;20032;-55
2022/03/01 06:25:00;;;;;;;22.38;15.90;;;;;;;3.73;nan;102557.44;5073412;28;20036;-54
2022/03/01 06:27:25;;;;;;;21.02;15.60;;;;;;;4.21;nan;102641.91;5038858;28;20085;-52
2022/03/01 06:29:51;;;;;;;19.90;15.63;;;;;;;3.89;nan;102590.78;5055448;28;20036;-54
2022/03/01 06:32:16;;;;;;;20.98;15.10;;;;;;;4.22;nan;102648.00;5055594;28;20033;-54
2022/03/01 06:34:41;;;;;;;19.30;15.75;;;;;;;4.21;nan;102647.09;5055421;28;20143;-54
2022/03/01 06:37:12;;;;;;;21.55;15.20;;;;;;;4.19;nan;102651.41;5038797;28;20120;-52
2022/03/01 06:39:42;;;;;;;21.55;15.70;;;;;;;4.04;nan;102627.63;5073169;28;20380;-52
2022/03/01 06:42:07;;;;;;;20.80;16.15;;;;;;;3.76;nan;102576.63;5055173;28;20153;-55
2022/03/01 06:44:33;;;;;;;19.02;15.50;;;;;;;4.25;nan;102668.91;5073295;28;20050;-51
2022/03/01 06:46:58;;;;;;;22.08;16.63;;;;;;;4.26;nan;102666.31;5073094;28;20036;-52
2022/03/01 06:49:23;;;;;;;24.90;15.45;;;;;;;4.28;nan;102658.56;5073092;28;20025;-50
2022/03/01 06:51:49;;;;;;;21.90;15.32;;;;;;;4.30;nan;102659.47;5054946;28;20021;-53
2022/03/01 06:54:14;;;;;;;18.23;15.60;;;;;;;4.24;nan;102655.00;5072803;28;20102;-52
2022/03/01 06:56:39;;;;;;;18.67;15.20;;;;;;;4.34;nan;102679.56;5054908;28;20442;-54
2022/03/01 06:59:05;;;;;;;19.42;15.38;;;;;;;4.34;nan;102685.66;5072964;28;20067;-54
2022/03/01 07:01:30;;;;;;;21.60;15.65;;;;;;;3.98;nan;102612.72;5055082;28;20468;-55
2022/03/01 07:03:55;;;;;;;19.65;14.98;;;;;;;4.41;nan;102682.31;5073087;28;20492;-56
2022/03/01 07:06:21;;;;;;;17.67;14.50;;;;;;;4.43;nan;102671.94;5072727;28;20032;-54
2022/03/01 07:08:46;;;;;;;20.83;15.98;;;;;;;4.45;nan;102685.88;5072886;28;20399;-53
2022/03/01 07:11:12;;;;;;;17.38;14.88;;;;;;;4.38;nan;102674.44;5072617;28;20041;-52
2022/03/01 07:13:37;;;;;;;21.08;15.18;;;;;;;4.08;nan;102624.25;5072531;28;20036;-54
2022/03/01 07:16:05;;;;;;;24.13;15.02;;;;;;;4.07;nan;102619.88;5072516;28;20036;-52
2022/03/01 07:18:30;;;;;;;20.92;15.63;;;;;;;4.48;nan;102681.63;5038328;28;20040;-52
2022/03/01 07:20:56;;;;;;;18.90;15.77;;;;;;;3.82;nan;102570.66;5072449;28;20078;-52
2022/03/01 07:23:21;;;;;;;21.83;15.98;;;;;;;4.16;nan;102634.81;5072472;28;20455;-56
2022/03/01 07:25:47;;;;;;;20.65;16.50;;;;;;;4.50;nan;102694.66;5054389;28;20037;-55
2022/03/01 07:28:12;;;;;;;23.80;15.45;;;;;;;4.57;nan;102698.31;5072282;28;20036;-56
2022/03/01 07:30:37;;;;;;;21.98;16.35;;;;;;;4.61;nan;102695.81;5054184;28;20056;-54
2022/03/01 07:33:03;;;;;;;20.33;16.35;;;;;;;4.66;nan;102694.16;5072280;28;20063;-55
2022/03/01 07:35:29;;;;;;;21.33;17.17;;;;;;;4.53;nan;102666.94;5072372;28;20471;-56
2022/03/01 07:37:55;;;;;;;20.13;16.15;;;;;;;4.76;nan;102703.94;5037717;28;20460;-57
2022/03/01 07:40:25;;;;;;;19.88;16.27;;;;;;;4.39;nan;102626.66;5054272;28;20103;-53
2022/03/01 07:42:51;;;;;;;19.55;16.83;;;;;;;4.87;nan;102717.22;5072090;28;20028;-52
2022/03/01 07:45:17;;;;;;;22.38;16.08;;;;;;;4.95;nan;102715.63;5070932;28;20056;-51
2022/03/01 07:47:43;;;;;;;18.58;15.73;;;;;;;4.94;nan;102708.66;5054056;28;20458;-53
2022/03/01 07:50:09;;;;;;;22.33;17.25;;;;;;;4.76;nan;102666.56;5072032;28;20503;-53
2022/03/01 07:52:34;;;;;;;24.77;16.17;;;;;;;5.14;nan;102722.13;5054110;28;20107;-52
2022/03/01 07:55:00;;;;;;;23.80;16.60;;;;;;;4.72;nan;102636.91;5072005;28;20186;-51
2022/03/01 07:57:25;;;;;;;25.65;16.52;;;;;;;5.17;nan;102717.81;5054405;28;20040;-52
2022/03/01 07:59:51;;;;;;;21.08;15.57;;;;;;;5.15;nan;102716.03;5072032;28;20123;-52
2022/03/01 08:02:16;;;;;;;19.00;15.65;;;;;;;5.19;nan;102731.81;5072109;28;20032;-52
2022/03/01 08:04:42;;;;;;;23.83;16.05;;;;;;;5.15;nan;102719.53;5071813;28;20468;-53
2022/03/01 08:07:11;;;;;;;20.27;15.52;;;;;;;5.13;nan;102720.34;5071803;28;20032;-53
2022/03/01 08:09:37;;;;;;;20.23;15.48;;;;;;;4.82;nan;102672.75;5053820;28;20045;-53
2022/03/01 08:12:04;;;;;;;22.27;16.65;;;;;;;4.74;nan;102663.91;5054201;28;20033;-50
2022/03/01 08:14:31;;;;;;;17.70;14.68;;;;;;;5.13;nan;102728.19;5071798;28;20032;-54
2022/03/01 08:16:57;;;;;;;22.52;17.10;;;;;;;4.79;nan;102679.63;5071902;28;20041;-53
2022/03/01 08:19:23;;;;;;;19.63;15.65;;;;;;;4.73;nan;102667.34;5053889;28;20021;-51
2022/03/01 08:21:48;;;;;;;21.73;15.32;;;;;;;5.06;nan;102741.09;5071806;28;20388;-51
2022/03/01 08:24:14;;;;;;;22.52;16.58;;;;;;;5.03;nan;102741.03;5071661;28;20040;-52
2022/03/01 08:26:39;;;;;;;22.35;17.40;;;;;;;5.03;nan;102743.66;5071837;28;20037;-52
2022/03/01 08:29:04;;;;;;;23.55;17.25;;;;;;;4.92;nan;102719.06;5071582;28;20480;-52
2022/03/01 08:31:30;;;;;;;21.50;16.00;;;;;;;5.01;nan;102734.91;5071455;28;20040;-50
2022/03/01 08:33:58;;;;;;;25.08;16.77;;;;;;;5.06;nan;102735.88;5071680;28;20115;-59
2022/03/01 08:36:24;;;;;;;19.27;15.55;;;;;;;4.67;nan;102659.41;5075250;28;20037;-52
2022/03/01 08:38:49;;;;;;;19.83;15.88;;;;;;;4.66;nan;102644.63;5057225;28;20046;-56
2022/03/01 08:41:15;;;;;;;20.00;16.25;;;;;;;4.93;nan;102676.44;5075284;28;20039;-53
2022/03/01 08:43:40;;;;;;;24.23;16.83;;;;;;;5.38;nan;102733.00;5075534;28;20043;-52
2022/03/01 08:46:10;;;;;;;20.83;16.95;;;;;;;4.97;nan;102667.84;5075338;28;20029;-54
2022/03/01 08:48:35;;;;;;;18.83;16.02;;;;;;;5.45;nan;102750.56;5075210;28;20091;-54
2022/03/01 08:51:01;;;;;;;20.75;15.88;;;;;;;5.46;nan;102753.19;5057344;28;20420;-55
2022/03/01 08:53:26;;;;;;;20.02;16.60;;;;;;;5.45;nan;102741.00;5057272;28;20032;-52
2022/03/01 08:55:53;;;;;;;18.98;16.73;;;;;;;5.51;nan;102748.09;5075199;28;20414;-54
2022/03/01 08:58:19;;;;;;;19.52;17.35;;;;;;;5.51;nan;102741.13;5075059;28;20131;-52
2022/03/01 09:00:45;;;;;;;21.90;16.90;;;;;;;5.53;nan;102746.38;5074204;28;20060;-53
2022/03/01 09:03:11;;;;;;;22.08;17.38;;;;;;;5.48;nan;102753.25;5074983;28;20040;-52
2022/03/01 09:05:36;;;;;;;22.92;17.27;;;;;;;5.54;nan;102762.09;5074731;28;20032;-56
2022/03/01 09:08:02;;;;;;;19.90;16.50;;;;;;;5.57;nan;102764.72;5056662;28;20114;-54
2022/03/01 09:10:27;;;;;;;20.27;16.45;;;;;;;5.55;nan;102776.00;5074753;28;20071;-56
2022/03/01 09:12:54;;;;;;;20.23;17.33;;;;;;;5.23;nan;102702.28;5074474;28;20033;-54
2022/03/01 09:15:20;;;;;;;20.35;16.70;;;;;;;5.60;nan;102771.75;5056980;28;20106;-54
2022/03/01 09:17:46;;;;;;;23.00;17.90;;;;;;;5.59;nan;102768.25;5074491;28;20058;-56
2022/03/01 09:20:12;;;;;;;24.77;17.60;;;;;;;4.86;nan;102650.22;5074414;28;20112;-52
2022/03/01 09:22:37;;;;;;;23.55;17.58;;;;;;;5.36;nan;102745.19;5074267;28;20123;-57
2022/03/01 09:25:04;;;;;;;20.70;17.98;;;;;;;5.05;nan;102699.31;5074130;28;20028;-54
2022/03/01 09:27:30;;;;;;;20.65;17.77;;;;;;;5.24;nan;102739.72;5056454;28;20480;-59
2022/03/01 09:29:56;;;;;;;24.40;19.00;;;;;;;5.25;nan;102767.59;5055980;28;20029;-59
2022/03/01 09:32:21;;;;;;;20.30;17.70;;;;;;;4.79;nan;102693.56;5056397;28;20056;-59
2022/03/01 09:34:47;;;;;;;22.55;18.65;;;;;;;5.13;nan;102759.50;5074328;28;20033;-58
2022/03/01 09:37:12;;;;;;;27.73;19.65;;;;;;;5.13;nan;102778.66;5074203;28;20037;-58
2022/03/01 09:39:38;;;;;;;25.88;20.05;;;;;;;5.11;nan;102778.63;5074353;28;20693;-58
2022/03/01 09:42:03;;;;;;;23.73;20.20;;;;;;;5.14;nan;102774.34;5056247;28;20039;-59
2022/03/01 09:44:29;;;;;;;25.65;20.77;;;;;;;5.11;nan;102775.13;5056234;28;20063;-58
2022/03/01 09:46:54;;;;;;;29.75;20.45;;;;;;;5.15;nan;102786.50;5072868;28;20066;-58
2022/03/01 09:49:20;;;;;;;27.42;21.52;;;;;;;5.16;nan;102765.69;5055653;28;20058;-59
2022/03/01 09:51:45;;;;;;;28.70;19.92;;;;;;;5.13;nan;102769.94;5053621;28;20494;-59
2022/03/01 09:54:10;;;;;;;29.83;22.73;;;;;;;5.15;nan;102769.13;5071929;28;20029;-59
2022/03/01 09:56:36;;;;;;;30.55;21.55;;;;;;;5.13;nan;102769.94;5072087;28;20029;-58
2022/03/01 09:59:02;;;;;;;26.17;21.55;;;;;;;5.04;nan;102755.88;5072829;28;20052;-59
2022/03/01 10:01:28;;;;;;;30.33;21.40;;;;;;;5.09;nan;102763.78;5055992;28;20033;-59
2022/03/01 10:04:06;;;;;;;28.17;22.73;;;;;;;5.01;nan;102750.59;5073544;28;20043;-59
2022/03/01 10:06:39;;;;;;;26.63;21.02;;;;;;;4.97;nan;102747.84;5072236;28;20118;-59
2022/03/01 10:09:23;;;;;;;30.48;22.30;;;;;;;4.92;nan;102737.34;5055580;28;20052;-59
2022/03/01 10:11:49;;;;;;;32.15;21.98;;;;;;;4.63;nan;102680.19;5071195;28;20064;-60
2022/03/01 10:14:15;;;;;;;27.65;22.23;;;;;;;5.10;nan;102755.09;5055907;28;20039;-60
2022/03/01 10:16:45;;;;;;;27.17;21.98;;;;;;;4.97;nan;102734.81;5053374;28;20032;-59
2022/03/01 10:19:16;;;;;;;24.52;19.25;;;;;;;4.71;nan;102689.91;5053604;28;20113;-58
2022/03/01 10:21:41;;;;;;;;;;;;;;;5.08;nan;102764.63;5052762;28;20056;-59
2022/03/01 10:24:08;;;;;;;27.73;21.35;;;;;;;5.12;nan;102748.19;5035588;28;20414;-59
2022/03/01 10:26:37;;;;;;;27.15;21.17;;;;;;;4.78;nan;102683.09;5053459;28;20476;-59
2022/03/01 10:29:04;;;;;;;27.50;21.70;;;;;;;5.07;nan;102724.59;5053490;28;20412;-58
2022/03/01 10:31:32;;;;;;;29.40;22.05;;;;;;;5.30;nan;102758.09;5035227;28;20127;-59
2022/03/01 10:34:02;;;;;;;28.80;21.75;;;;;;;5.31;nan;102750.28;5035080;28;20029;-59
2022/03/01 10:36:33;;;;;;;24.38;21.75;;;;;;;4.91;nan;102682.50;5053138;28;20055;-58
2022/03/01 10:39:00;;;;;;;26.33;21.92;;;;;;;5.27;nan;102753.72;5053079;28;20480;-57
2022/03/01 10:41:28;;;;;;;25.95;21.60;;;;;;;4.98;nan;102711.38;5053054;28;20029;-58
2022/03/01 10:43:57;;;;;;;26.58;22.25;;;;;;;4.81;nan;102673.63;5052952;28;20037;-58
2022/03/01 10:46:22;;;;;;;27.70;22.40;;;;;;;5.17;nan;102738.69;5053182;28;20086;-58
2022/03/01 10:48:58;;;;;;;28.30;21.95;;;;;;;4.90;nan;102675.53;5035206;28;20412;-58
2022/03/01 10:51:24;;;;;;;26.45;21.70;;;;;;;5.30;nan;102751.16;5052901;28;20052;-58
2022/03/01 10:53:49;;;;;;;26.45;20.85;;;;;;;5.27;nan;102742.38;5052717;28;20033;-58
2022/03/01 10:56:16;;;;;;;27.17;21.75;;;;;;;5.04;nan;102693.22;5035123;28;20043;-57
2022/03/01 10:58:43;;;;;;;27.30;22.25;;;;;;;5.48;nan;102753.25;5034414;28;20040;-59
2022/03/01 11:01:09;;;;;;;30.38;23.52;;;;;;;5.11;nan;102671.59;5051604;28;20052;-60
2022/03/01 11:03:35;;;;;;;29.45;22.45;;;;;;;5.42;nan;102693.06;5034850;28;20033;-59
2022/03/01 11:06:02;;;;;;;27.08;22.75;;;;;;;5.86;nan;102744.41;5034948;28;20116;-58
2022/03/01 11:08:35;;;;;;;29.08;21.23;;;;;;;5.60;nan;102677.72;5023993;28;20538;-59
2022/03/01 11:11:01;;;;;;;24.63;21.42;;;;;;;6.02;nan;102717.66;5012745;28;20488;-58
2022/03/01 11:13:27;;;;;;;24.85;20.92;;;;;;;6.15;nan;102693.47;5013122;28;20042;-57
2022/03/01 11:16:08;;;;;;;30.42;22.70;;;;;;;6.60;nan;102729.84;5011384;28;20105;-59
2022/03/01 11:19:10;;;;;;;29.38;20.58;;;;;;;6.84;nan;102736.28;5012854;28;20418;-57
2022/03/01 11:21:37;;;;;;;25.05;21.02;;;;;;;6.86;nan;102670.00;5012565;28;20048;-59
2022/03/01 11:24:03;;;;;;;22.38;19.92;;;;;;;7.45;nan;102699.44;5011813;28;20033;-57
2022/03/01 11:26:38;;;;;;;23.10;20.27;;;;;;;7.98;nan;102683.31;5012874;28;20030;-59
2022/03/01 11:29:08;;;;;;;22.60;19.40;;;;;;;8.79;nan;102740.72;5012618;28;20113;-57